sensor_id;sensor_type;location;lat;lon;timestamp;P1;durP1;ratioP1;P2;durP2;ratioP2
17201;SDS011;8717;53.588;10.176;2022-11-23T00:00:42;39.07;;;20.67;;
17201;SDS011;8717;53.588;10.176;2022-11-23T00:03:10;38.13;;;22.00;;
17201;SDS011;8717;53.588;10.176;2022-11-23T00:05:39;50.77;;;21.70;;
17201;SDS011;8717;53.588;10.176;2022-11-23T00:08:05;45.70;;;21.70;;
17201;SDS011;8717;53.588;10.176;2022-11-23T00:10:32;35.87;;;21.37;;
17201;SDS011;8717;53.588;10.176;2022-11-23T00:13:00;35.00;;;19.87;;
17201;SDS011;8717;53.588;10.176;2022-11-23T00:15:27;35.23;;;20.53;;
17201;SDS011;8717;53.588;10.176;2022-11-23T00:17:53;34.33;;;20.37;;
17201;SDS011;8717;53.588;10.176;2022-11-23T00:20:20;38.23;;;21.90;;
17201;SDS011;8717;53.588;10.176;2022-11-23T00:22:47;34.50;;;20.77;;
17201;SDS011;8717;53.588;10.176;2022-11-23T00:25:13;34.63;;;20.33;;
17201;SDS011;8717;53.588;10.176;2022-11-23T00:27:40;37.00;;;21.67;;
17201;SDS011;8717;53.588;10.176;2022-11-23T00:30:10;36.17;;;20.53;;
17201;SDS011;8717;53.588;10.176;2022-11-23T00:32:37;34.87;;;21.23;;
17201;SDS011;8717;53.588;10.176;2022-11-23T00:35:05;35.10;;;20.60;;
17201;SDS011;8717;53.588;10.176;2022-11-23T00:37:32;36.57;;;21.10;;
17201;SDS011;8717;53.588;10.176;2022-11-23T00:39:59;33.97;;;20.17;;
17201;SDS011;8717;53.588;10.176;2022-11-23T00:42:26;35.80;;;21.33;;
17201;SDS011;8717;53.588;10.176;2022-11-23T00:44:52;35.63;;;20.90;;
17201;SDS011;8717;53.588;10.176;2022-11-23T00:47:20;36.83;;;20.73;;
17201;SDS011;8717;53.588;10.176;2022-11-23T00:49:47;31.93;;;19.33;;
17201;SDS011;8717;53.588;10.176;2022-11-23T00:52:16;33.33;;;19.20;;
17201;SDS011;8717;53.588;10.176;2022-11-23T00:54:43;36.23;;;20.20;;
17201;SDS011;8717;53.588;10.176;2022-11-23T00:57:09;32.73;;;19.47;;
17201;SDS011;8717;53.588;10.176;2022-11-23T00:59:36;36.40;;;20.23;;
17201;SDS011;8717;53.588;10.176;2022-11-23T01:02:03;35.87;;;20.47;;
17201;SDS011;8717;53.588;10.176;2022-11-23T01:04:31;33.23;;;18.70;;
17201;SDS011;8717;53.588;10.176;2022-11-23T01:06:58;32.00;;;20.50;;
17201;SDS011;8717;53.588;10.176;2022-11-23T01:09:25;43.33;;;20.83;;
17201;SDS011;8717;53.588;10.176;2022-11-23T01:11:52;32.60;;;19.73;;
17201;SDS011;8717;53.588;10.176;2022-11-23T01:14:22;34.37;;;20.27;;
17201;SDS011;8717;53.588;10.176;2022-11-23T01:16:49;33.67;;;19.93;;
17201;SDS011;8717;53.588;10.176;2022-11-23T01:19:17;34.63;;;20.43;;
17201;SDS011;8717;53.588;10.176;2022-11-23T01:21:49;33.90;;;19.53;;
17201;SDS011;8717;53.588;10.176;2022-11-23T01:24:17;30.27;;;18.93;;
17201;SDS011;8717;53.588;10.176;2022-11-23T01:26:49;36.80;;;20.03;;
17201;SDS011;8717;53.588;10.176;2022-11-23T01:29:15;36.30;;;19.57;;
17201;SDS011;8717;53.588;10.176;2022-11-23T01:31:42;30.53;;;18.60;;
17201;SDS011;8717;53.588;10.176;2022-11-23T01:34:12;32.63;;;19.17;;
17201;SDS011;8717;53.588;10.176;2022-11-23T01:36:39;32.03;;;19.97;;
17201;SDS011;8717;53.588;10.176;2022-11-23T01:39:09;30.87;;;19.17;;
17201;SDS011;8717;53.588;10.176;2022-11-23T01:41:37;32.90;;;18.27;;
17201;SDS011;8717;53.588;10.176;2022-11-23T01:44:19;33.40;;;19.17;;
17201;SDS011;8717;53.588;10.176;2022-11-23T01:46:52;33.77;;;19.53;;
17201;SDS011;8717;53.588;10.176;2022-11-23T01:49:19;31.80;;;18.77;;
17201;SDS011;8717;53.588;10.176;2022-11-23T01:51:48;33.17;;;18.83;;
17201;SDS011;8717;53.588;10.176;2022-11-23T01:54:20;31.43;;;18.27;;
17201;SDS011;8717;53.588;10.176;2022-11-23T01:56:49;29.47;;;18.00;;
17201;SDS011;8717;53.588;10.176;2022-11-23T01:59:19;33.87;;;19.10;;
17201;SDS011;8717;53.588;10.176;2022-11-23T02:01:48;33.00;;;19.00;;
17201;SDS011;8717;53.588;10.176;2022-11-23T02:04:18;32.63;;;19.47;;
17201;SDS011;8717;53.588;10.176;2022-11-23T02:06:48;31.23;;;19.17;;
17201;SDS011;8717;53.588;10.176;2022-11-23T02:09:19;31.10;;;18.13;;
17201;SDS011;8717;53.588;10.176;2022-11-23T02:11:47;29.80;;;18.07;;
17201;SDS011;8717;53.588;10.176;2022-11-23T02:14:14;31.40;;;19.20;;
17201;SDS011;8717;53.588;10.176;2022-11-23T02:16:41;34.97;;;18.93;;
17201;SDS011;8717;53.588;10.176;2022-11-23T02:19:11;30.27;;;19.20;;
17201;SDS011;8717;53.588;10.176;2022-11-23T02:21:46;31.00;;;19.50;;
17201;SDS011;8717;53.588;10.176;2022-11-23T02:24:16;35.27;;;20.50;;
17201;SDS011;8717;53.588;10.176;2022-11-23T02:26:51;32.20;;;18.70;;
17201;SDS011;8717;53.588;10.176;2022-11-23T02:29:19;31.63;;;19.40;;
17201;SDS011;8717;53.588;10.176;2022-11-23T02:31:49;27.90;;;18.17;;
17201;SDS011;8717;53.588;10.176;2022-11-23T02:34:16;29.13;;;18.00;;
17201;SDS011;8717;53.588;10.176;2022-11-23T02:36:43;31.20;;;18.33;;
17201;SDS011;8717;53.588;10.176;2022-11-23T02:39:13;32.70;;;18.67;;
17201;SDS011;8717;53.588;10.176;2022-11-23T02:41:43;28.10;;;17.40;;
17201;SDS011;8717;53.588;10.176;2022-11-23T02:44:17;33.57;;;17.77;;
17201;SDS011;8717;53.588;10.176;2022-11-23T02:46:50;32.00;;;18.20;;
17201;SDS011;8717;53.588;10.176;2022-11-23T02:49:18;27.83;;;17.03;;
17201;SDS011;8717;53.588;10.176;2022-11-23T02:51:44;30.50;;;17.43;;
17201;SDS011;8717;53.588;10.176;2022-11-23T02:54:11;31.93;;;19.03;;
17201;SDS011;8717;53.588;10.176;2022-11-23T02:56:38;27.67;;;17.53;;
17201;SDS011;8717;53.588;10.176;2022-11-23T02:59:06;29.53;;;18.13;;
17201;SDS011;8717;53.588;10.176;2022-11-23T03:01:35;40.57;;;19.90;;
17201;SDS011;8717;53.588;10.176;2022-11-23T03:04:04;33.20;;;18.40;;
17201;SDS011;8717;53.588;10.176;2022-11-23T03:06:31;29.83;;;18.47;;
17201;SDS011;8717;53.588;10.176;2022-11-23T03:08:58;31.47;;;18.77;;
17201;SDS011;8717;53.588;10.176;2022-11-23T03:11:24;29.03;;;17.50;;
17201;SDS011;8717;53.588;10.176;2022-11-23T03:13:51;29.13;;;17.77;;
17201;SDS011;8717;53.588;10.176;2022-11-23T03:16:19;28.17;;;18.37;;
17201;SDS011;8717;53.588;10.176;2022-11-23T03:18:48;62.57;;;19.73;;
17201;SDS011;8717;53.588;10.176;2022-11-23T03:21:16;37.00;;;18.60;;
17201;SDS011;8717;53.588;10.176;2022-11-23T03:23:43;29.00;;;18.67;;
17201;SDS011;8717;53.588;10.176;2022-11-23T03:26:11;31.83;;;17.50;;
17201;SDS011;8717;53.588;10.176;2022-11-23T03:28:44;29.73;;;18.93;;
17201;SDS011;8717;53.588;10.176;2022-11-23T03:31:13;29.60;;;17.63;;
17201;SDS011;8717;53.588;10.176;2022-11-23T03:33:40;28.87;;;18.07;;
17201;SDS011;8717;53.588;10.176;2022-11-23T03:36:08;29.73;;;17.77;;
17201;SDS011;8717;53.588;10.176;2022-11-23T03:38:40;29.77;;;17.07;;
17201;SDS011;8717;53.588;10.176;2022-11-23T03:41:20;32.00;;;18.13;;
17201;SDS011;8717;53.588;10.176;2022-11-23T03:43:50;32.30;;;17.43;;
17201;SDS011;8717;53.588;10.176;2022-11-23T03:46:16;27.40;;;17.43;;
17201;SDS011;8717;53.588;10.176;2022-11-23T03:48:43;29.27;;;18.27;;
17201;SDS011;8717;53.588;10.176;2022-11-23T03:51:11;32.13;;;17.50;;
17201;SDS011;8717;53.588;10.176;2022-11-23T03:53:38;31.63;;;17.67;;
17201;SDS011;8717;53.588;10.176;2022-11-23T03:56:05;29.07;;;16.53;;
17201;SDS011;8717;53.588;10.176;2022-11-23T03:58:35;30.33;;;17.57;;
17201;SDS011;8717;53.588;10.176;2022-11-23T04:01:05;29.37;;;17.50;;
17201;SDS011;8717;53.588;10.176;2022-11-23T04:03:32;29.27;;;17.27;;
17201;SDS011;8717;53.588;10.176;2022-11-23T04:06:08;28.17;;;16.63;;
17201;SDS011;8717;53.588;10.176;2022-11-23T04:08:54;28.63;;;16.87;;
17201;SDS011;8717;53.588;10.176;2022-11-23T04:11:38;27.70;;;17.10;;
17201;SDS011;8717;53.588;10.176;2022-11-23T04:14:06;30.50;;;17.23;;
17201;SDS011;8717;53.588;10.176;2022-11-23T04:16:33;25.30;;;16.77;;
17201;SDS011;8717;53.588;10.176;2022-11-23T04:19:03;29.27;;;17.10;;
17201;SDS011;8717;53.588;10.176;2022-11-23T04:21:36;25.77;;;16.10;;
17201;SDS011;8717;53.588;10.176;2022-11-23T04:24:04;28.90;;;17.17;;
17201;SDS011;8717;53.588;10.176;2022-11-23T04:26:34;30.33;;;18.57;;
17201;SDS011;8717;53.588;10.176;2022-11-23T04:29:03;25.47;;;16.30;;
17201;SDS011;8717;53.588;10.176;2022-11-23T04:31:32;24.77;;;16.07;;
17201;SDS011;8717;53.588;10.176;2022-11-23T04:34:08;25.50;;;15.57;;
17201;SDS011;8717;53.588;10.176;2022-11-23T04:36:36;28.90;;;16.53;;
17201;SDS011;8717;53.588;10.176;2022-11-23T04:39:05;25.43;;;15.93;;
17201;SDS011;8717;53.588;10.176;2022-11-23T04:41:56;27.27;;;16.03;;
17201;SDS011;8717;53.588;10.176;2022-11-23T04:44:22;27.20;;;16.47;;
17201;SDS011;8717;53.588;10.176;2022-11-23T04:46:59;23.70;;;15.13;;
17201;SDS011;8717;53.588;10.176;2022-11-23T04:49:26;23.30;;;15.23;;
17201;SDS011;8717;53.588;10.176;2022-11-23T04:51:53;22.03;;;15.53;;
17201;SDS011;8717;53.588;10.176;2022-11-23T04:54:26;25.93;;;16.53;;
17201;SDS011;8717;53.588;10.176;2022-11-23T04:56:56;24.40;;;15.73;;
17201;SDS011;8717;53.588;10.176;2022-11-23T04:59:23;24.30;;;14.00;;
17201;SDS011;8717;53.588;10.176;2022-11-23T05:01:51;25.73;;;15.23;;
17201;SDS011;8717;53.588;10.176;2022-11-23T05:04:40;24.93;;;15.07;;
17201;SDS011;8717;53.588;10.176;2022-11-23T05:07:08;23.57;;;15.23;;
17201;SDS011;8717;53.588;10.176;2022-11-23T05:09:39;27.97;;;14.93;;
17201;SDS011;8717;53.588;10.176;2022-11-23T05:12:11;25.73;;;14.73;;
17201;SDS011;8717;53.588;10.176;2022-11-23T05:14:38;23.57;;;15.17;;
17201;SDS011;8717;53.588;10.176;2022-11-23T05:17:07;23.53;;;15.20;;
17201;SDS011;8717;53.588;10.176;2022-11-23T05:19:34;24.23;;;15.23;;
17201;SDS011;8717;53.588;10.176;2022-11-23T05:22:01;25.27;;;15.73;;
17201;SDS011;8717;53.588;10.176;2022-11-23T05:24:30;21.77;;;13.87;;
17201;SDS011;8717;53.588;10.176;2022-11-23T05:27:06;23.63;;;14.33;;
17201;SDS011;8717;53.588;10.176;2022-11-23T05:29:32;22.93;;;13.70;;
17201;SDS011;8717;53.588;10.176;2022-11-23T05:32:00;27.00;;;14.60;;
17201;SDS011;8717;53.588;10.176;2022-11-23T05:34:27;29.93;;;15.63;;
17201;SDS011;8717;53.588;10.176;2022-11-23T05:36:53;24.53;;;14.57;;
17201;SDS011;8717;53.588;10.176;2022-11-23T05:39:21;28.70;;;14.87;;
17201;SDS011;8717;53.588;10.176;2022-11-23T05:41:50;22.30;;;13.90;;
17201;SDS011;8717;53.588;10.176;2022-11-23T05:44:40;21.37;;;14.00;;
17201;SDS011;8717;53.588;10.176;2022-11-23T05:47:14;23.50;;;15.10;;
17201;SDS011;8717;53.588;10.176;2022-11-23T05:49:41;26.77;;;15.47;;
17201;SDS011;8717;53.588;10.176;2022-11-23T05:52:08;36.40;;;16.00;;
17201;SDS011;8717;53.588;10.176;2022-11-23T05:54:36;49.47;;;15.90;;
17201;SDS011;8717;53.588;10.176;2022-11-23T05:57:09;46.60;;;16.13;;
17201;SDS011;8717;53.588;10.176;2022-11-23T05:59:41;26.43;;;16.00;;
17201;SDS011;8717;53.588;10.176;2022-11-23T06:02:13;24.80;;;14.70;;
17201;SDS011;8717;53.588;10.176;2022-11-23T06:04:43;31.50;;;16.77;;
17201;SDS011;8717;53.588;10.176;2022-11-23T06:07:16;30.17;;;16.00;;
17201;SDS011;8717;53.588;10.176;2022-11-23T06:10:05;20.77;;;13.90;;
17201;SDS011;8717;53.588;10.176;2022-11-23T06:12:38;62.60;;;17.27;;
17201;SDS011;8717;53.588;10.176;2022-11-23T06:15:09;28.90;;;15.03;;
17201;SDS011;8717;53.588;10.176;2022-11-23T06:17:37;25.17;;;14.47;;
17201;SDS011;8717;53.588;10.176;2022-11-23T06:20:08;31.30;;;15.77;;
17201;SDS011;8717;53.588;10.176;2022-11-23T06:22:42;24.83;;;14.37;;
17201;SDS011;8717;53.588;10.176;2022-11-23T06:25:09;28.33;;;15.93;;
17201;SDS011;8717;53.588;10.176;2022-11-23T06:27:42;23.33;;;15.20;;
17201;SDS011;8717;53.588;10.176;2022-11-23T06:30:18;26.63;;;14.57;;
17201;SDS011;8717;53.588;10.176;2022-11-23T06:32:46;26.13;;;13.97;;
17201;SDS011;8717;53.588;10.176;2022-11-23T06:35:14;25.67;;;15.27;;
17201;SDS011;8717;53.588;10.176;2022-11-23T06:37:42;24.07;;;14.13;;
17201;SDS011;8717;53.588;10.176;2022-11-23T06:40:10;27.63;;;15.13;;
17201;SDS011;8717;53.588;10.176;2022-11-23T06:42:41;23.63;;;14.30;;
17201;SDS011;8717;53.588;10.176;2022-11-23T06:45:17;22.77;;;13.93;;
17201;SDS011;8717;53.588;10.176;2022-11-23T06:47:46;24.63;;;15.47;;
17201;SDS011;8717;53.588;10.176;2022-11-23T06:50:13;23.30;;;14.80;;
17201;SDS011;8717;53.588;10.176;2022-11-23T06:52:42;54.43;;;16.23;;
17201;SDS011;8717;53.588;10.176;2022-11-23T06:55:09;28.00;;;14.70;;
17201;SDS011;8717;53.588;10.176;2022-11-23T06:57:36;25.07;;;15.37;;
17201;SDS011;8717;53.588;10.176;2022-11-23T07:00:03;30.30;;;14.17;;
17201;SDS011;8717;53.588;10.176;2022-11-23T07:02:36;45.70;;;16.20;;
17201;SDS011;8717;53.588;10.176;2022-11-23T07:05:03;28.03;;;14.90;;
17201;SDS011;8717;53.588;10.176;2022-11-23T07:07:30;21.63;;;12.93;;
17201;SDS011;8717;53.588;10.176;2022-11-23T07:10:05;25.70;;;13.70;;
17201;SDS011;8717;53.588;10.176;2022-11-23T07:12:42;23.40;;;13.43;;
17201;SDS011;8717;53.588;10.176;2022-11-23T07:15:09;23.57;;;14.40;;
17201;SDS011;8717;53.588;10.176;2022-11-23T07:17:39;22.83;;;14.57;;
17201;SDS011;8717;53.588;10.176;2022-11-23T07:20:08;22.87;;;13.87;;
17201;SDS011;8717;53.588;10.176;2022-11-23T07:22:37;25.23;;;13.97;;
17201;SDS011;8717;53.588;10.176;2022-11-23T07:25:06;20.20;;;12.50;;
17201;SDS011;8717;53.588;10.176;2022-11-23T07:27:40;21.40;;;12.97;;
17201;SDS011;8717;53.588;10.176;2022-11-23T07:30:07;22.23;;;12.37;;
17201;SDS011;8717;53.588;10.176;2022-11-23T07:32:38;22.07;;;14.20;;
17201;SDS011;8717;53.588;10.176;2022-11-23T07:35:06;24.67;;;13.63;;
17201;SDS011;8717;53.588;10.176;2022-11-23T07:37:36;21.07;;;13.30;;
17201;SDS011;8717;53.588;10.176;2022-11-23T07:40:03;19.83;;;12.67;;
17201;SDS011;8717;53.588;10.176;2022-11-23T07:42:32;18.10;;;12.90;;
17201;SDS011;8717;53.588;10.176;2022-11-23T07:44:59;22.37;;;12.80;;
17201;SDS011;8717;53.588;10.176;2022-11-23T07:47:27;21.43;;;12.37;;
17201;SDS011;8717;53.588;10.176;2022-11-23T07:49:55;20.20;;;12.77;;
17201;SDS011;8717;53.588;10.176;2022-11-23T07:52:22;19.00;;;12.23;;
17201;SDS011;8717;53.588;10.176;2022-11-23T07:54:49;21.13;;;12.43;;
17201;SDS011;8717;53.588;10.176;2022-11-23T07:57:16;21.13;;;12.33;;
17201;SDS011;8717;53.588;10.176;2022-11-23T07:59:42;19.43;;;12.70;;
17201;SDS011;8717;53.588;10.176;2022-11-23T08:02:09;21.70;;;11.87;;
17201;SDS011;8717;53.588;10.176;2022-11-23T08:04:41;21.33;;;12.17;;
17201;SDS011;8717;53.588;10.176;2022-11-23T08:07:09;17.30;;;12.00;;
17201;SDS011;8717;53.588;10.176;2022-11-23T08:09:37;19.00;;;11.97;;
17201;SDS011;8717;53.588;10.176;2022-11-23T08:12:04;18.17;;;11.47;;
17201;SDS011;8717;53.588;10.176;2022-11-23T08:14:31;18.40;;;12.43;;
17201;SDS011;8717;53.588;10.176;2022-11-23T08:16:57;18.00;;;11.30;;
17201;SDS011;8717;53.588;10.176;2022-11-23T08:19:24;17.77;;;11.03;;
17201;SDS011;8717;53.588;10.176;2022-11-23T08:21:51;21.20;;;11.37;;
17201;SDS011;8717;53.588;10.176;2022-11-23T08:24:19;17.87;;;11.97;;
17201;SDS011;8717;53.588;10.176;2022-11-23T08:26:45;17.93;;;11.10;;
17201;SDS011;8717;53.588;10.176;2022-11-23T08:29:12;15.47;;;10.27;;
17201;SDS011;8717;53.588;10.176;2022-11-23T08:31:39;16.50;;;10.17;;
17201;SDS011;8717;53.588;10.176;2022-11-23T08:34:05;17.50;;;10.97;;
17201;SDS011;8717;53.588;10.176;2022-11-23T08:36:32;17.97;;;10.87;;
17201;SDS011;8717;53.588;10.176;2022-11-23T08:38:59;19.73;;;11.53;;
17201;SDS011;8717;53.588;10.176;2022-11-23T08:41:27;13.10;;;9.47;;
17201;SDS011;8717;53.588;10.176;2022-11-23T08:43:53;14.67;;;9.73;;
17201;SDS011;8717;53.588;10.176;2022-11-23T08:46:20;18.00;;;10.20;;
17201;SDS011;8717;53.588;10.176;2022-11-23T08:48:47;16.07;;;8.57;;
17201;SDS011;8717;53.588;10.176;2022-11-23T08:51:13;12.07;;;8.10;;
17201;SDS011;8717;53.588;10.176;2022-11-23T08:53:46;12.83;;;8.30;;
17201;SDS011;8717;53.588;10.176;2022-11-23T08:56:13;13.47;;;8.37;;
17201;SDS011;8717;53.588;10.176;2022-11-23T08:58:43;14.37;;;8.60;;
17201;SDS011;8717;53.588;10.176;2022-11-23T09:01:11;13.63;;;7.97;;
17201;SDS011;8717;53.588;10.176;2022-11-23T09:03:39;15.77;;;9.03;;
17201;SDS011;8717;53.588;10.176;2022-11-23T09:06:09;13.07;;;8.33;;
17201;SDS011;8717;53.588;10.176;2022-11-23T09:08:36;13.20;;;7.73;;
17201;SDS011;8717;53.588;10.176;2022-11-23T09:11:03;10.83;;;7.80;;
17201;SDS011;8717;53.588;10.176;2022-11-23T09:13:33;10.37;;;7.50;;
17201;SDS011;8717;53.588;10.176;2022-11-23T09:16:02;15.63;;;7.90;;
17201;SDS011;8717;53.588;10.176;2022-11-23T09:18:30;9.73;;;6.77;;
17201;SDS011;8717;53.588;10.176;2022-11-23T09:20:57;10.63;;;7.00;;
17201;SDS011;8717;53.588;10.176;2022-11-23T09:23:26;13.30;;;7.80;;
17201;SDS011;8717;53.588;10.176;2022-11-23T09:25:57;13.03;;;7.57;;
17201;SDS011;8717;53.588;10.176;2022-11-23T09:28:24;11.47;;;7.40;;
17201;SDS011;8717;53.588;10.176;2022-11-23T09:30:52;12.40;;;7.27;;
17201;SDS011;8717;53.588;10.176;2022-11-23T09:33:21;12.50;;;6.70;;
17201;SDS011;8717;53.588;10.176;2022-11-23T09:35:54;10.23;;;6.80;;
17201;SDS011;8717;53.588;10.176;2022-11-23T09:38:22;8.83;;;6.40;;
17201;SDS011;8717;53.588;10.176;2022-11-23T09:40:48;9.70;;;6.80;;
17201;SDS011;8717;53.588;10.176;2022-11-23T09:43:34;10.07;;;6.70;;
17201;SDS011;8717;53.588;10.176;2022-11-23T09:46:24;10.63;;;6.70;;
17201;SDS011;8717;53.588;10.176;2022-11-23T09:49:08;12.00;;;6.37;;
17201;SDS011;8717;53.588;10.176;2022-11-23T09:51:38;8.33;;;5.40;;
17201;SDS011;8717;53.588;10.176;2022-11-23T09:54:09;7.37;;;5.93;;
17201;SDS011;8717;53.588;10.176;2022-11-23T09:56:57;11.47;;;6.33;;
17201;SDS011;8717;53.588;10.176;2022-11-23T09:59:27;12.80;;;6.43;;
17201;SDS011;8717;53.588;10.176;2022-11-23T10:02:01;11.80;;;5.73;;
17201;SDS011;8717;53.588;10.176;2022-11-23T10:04:31;9.77;;;5.47;;
17201;SDS011;8717;53.588;10.176;2022-11-23T10:07:02;9.40;;;5.13;;
17201;SDS011;8717;53.588;10.176;2022-11-23T10:09:38;7.47;;;5.00;;
17201;SDS011;8717;53.588;10.176;2022-11-23T10:12:21;8.47;;;5.07;;
17201;SDS011;8717;53.588;10.176;2022-11-23T10:15:02;8.27;;;4.80;;
17201;SDS011;8717;53.588;10.176;2022-11-23T10:20:35;7.73;;;4.97;;
17201;SDS011;8717;53.588;10.176;2022-11-23T10:23:12;8.73;;;4.97;;
17201;SDS011;8717;53.588;10.176;2022-11-23T10:25:44;8.93;;;5.20;;
17201;SDS011;8717;53.588;10.176;2022-11-23T10:28:16;9.13;;;5.33;;
17201;SDS011;8717;53.588;10.176;2022-11-23T10:30:45;10.27;;;4.83;;
17201;SDS011;8717;53.588;10.176;2022-11-23T10:33:23;10.00;;;4.87;;
17201;SDS011;8717;53.588;10.176;2022-11-23T10:35:56;8.43;;;4.80;;
17201;SDS011;8717;53.588;10.176;2022-11-23T10:38:25;7.60;;;4.80;;
17201;SDS011;8717;53.588;10.176;2022-11-23T10:40:56;10.20;;;5.60;;
17201;SDS011;8717;53.588;10.176;2022-11-23T10:43:28;9.27;;;5.00;;
17201;SDS011;8717;53.588;10.176;2022-11-23T10:49:12;8.77;;;6.37;;
17201;SDS011;8717;53.588;10.176;2022-11-23T10:51:50;12.27;;;5.50;;
17201;SDS011;8717;53.588;10.176;2022-11-23T10:54:20;8.23;;;4.67;;
17201;SDS011;8717;53.588;10.176;2022-11-23T10:56:50;7.83;;;4.70;;
17201;SDS011;8717;53.588;10.176;2022-11-23T10:59:24;9.73;;;4.90;;
17201;SDS011;8717;53.588;10.176;2022-11-23T11:02:00;8.03;;;4.83;;
17201;SDS011;8717;53.588;10.176;2022-11-23T11:04:36;8.53;;;4.40;;
17201;SDS011;8717;53.588;10.176;2022-11-23T11:07:12;9.83;;;4.83;;
17201;SDS011;8717;53.588;10.176;2022-11-23T11:09:49;8.33;;;4.77;;
17201;SDS011;8717;53.588;10.176;2022-11-23T11:12:17;11.00;;;5.33;;
17201;SDS011;8717;53.588;10.176;2022-11-23T11:14:53;8.60;;;4.67;;
17201;SDS011;8717;53.588;10.176;2022-11-23T11:17:27;9.27;;;5.27;;
17201;SDS011;8717;53.588;10.176;2022-11-23T11:19:58;7.70;;;4.67;;
17201;SDS011;8717;53.588;10.176;2022-11-23T11:22:28;7.57;;;5.03;;
17201;SDS011;8717;53.588;10.176;2022-11-23T11:24:59;9.07;;;4.90;;
17201;SDS011;8717;53.588;10.176;2022-11-23T11:27:27;9.00;;;5.07;;
17201;SDS011;8717;53.588;10.176;2022-11-23T11:30:02;9.53;;;5.60;;
17201;SDS011;8717;53.588;10.176;2022-11-23T11:32:37;8.03;;;5.07;;
17201;SDS011;8717;53.588;10.176;2022-11-23T11:35:20;9.70;;;5.50;;
17201;SDS011;8717;53.588;10.176;2022-11-23T11:37:53;10.00;;;5.17;;
17201;SDS011;8717;53.588;10.176;2022-11-23T11:40:27;8.80;;;5.43;;
17201;SDS011;8717;53.588;10.176;2022-11-23T11:42:58;10.93;;;5.67;;
17201;SDS011;8717;53.588;10.176;2022-11-23T11:45:30;9.27;;;5.00;;
17201;SDS011;8717;53.588;10.176;2022-11-23T11:47:59;10.87;;;5.37;;
17201;SDS011;8717;53.588;10.176;2022-11-23T11:50:34;8.00;;;5.20;;
17201;SDS011;8717;53.588;10.176;2022-11-23T11:53:06;14.43;;;5.50;;
17201;SDS011;8717;53.588;10.176;2022-11-23T11:55:43;8.43;;;5.43;;
17201;SDS011;8717;53.588;10.176;2022-11-23T11:58:15;9.60;;;5.40;;
17201;SDS011;8717;53.588;10.176;2022-11-23T12:00:42;10.03;;;5.50;;
17201;SDS011;8717;53.588;10.176;2022-11-23T12:03:17;8.53;;;5.07;;
17201;SDS011;8717;53.588;10.176;2022-11-23T12:05:58;10.47;;;5.73;;
17201;SDS011;8717;53.588;10.176;2022-11-23T12:08:34;9.73;;;5.27;;
17201;SDS011;8717;53.588;10.176;2022-11-23T12:11:11;11.13;;;5.27;;
17201;SDS011;8717;53.588;10.176;2022-11-23T12:13:39;11.67;;;5.73;;
17201;SDS011;8717;53.588;10.176;2022-11-23T12:16:09;12.13;;;5.67;;
17201;SDS011;8717;53.588;10.176;2022-11-23T12:21:45;10.97;;;5.20;;
17201;SDS011;8717;53.588;10.176;2022-11-23T12:24:38;8.97;;;5.17;;
17201;SDS011;8717;53.588;10.176;2022-11-23T12:27:28;10.10;;;4.90;;
17201;SDS011;8717;53.588;10.176;2022-11-23T12:30:12;8.37;;;4.80;;
17201;SDS011;8717;53.588;10.176;2022-11-23T12:36:04;10.57;;;4.73;;
17201;SDS011;8717;53.588;10.176;2022-11-23T12:38:40;13.37;;;4.90;;
17201;SDS011;8717;53.588;10.176;2022-11-23T12:41:19;9.70;;;4.80;;
17201;SDS011;8717;53.588;10.176;2022-11-23T12:43:59;6.27;;;4.17;;
17201;SDS011;8717;53.588;10.176;2022-11-23T12:46:51;8.50;;;4.30;;
17201;SDS011;8717;53.588;10.176;2022-11-23T12:49:27;10.87;;;3.97;;
17201;SDS011;8717;53.588;10.176;2022-11-23T12:52:03;7.57;;;4.07;;
17201;SDS011;8717;53.588;10.176;2022-11-23T12:54:46;8.40;;;4.53;;
17201;SDS011;8717;53.588;10.176;2022-11-23T12:57:25;8.73;;;3.90;;
17201;SDS011;8717;53.588;10.176;2022-11-23T12:59:59;5.33;;;3.87;;
17201;SDS011;8717;53.588;10.176;2022-11-23T13:02:37;7.57;;;3.90;;
17201;SDS011;8717;53.588;10.176;2022-11-23T13:05:41;9.13;;;3.70;;
17201;SDS011;8717;53.588;10.176;2022-11-23T13:08:28;7.30;;;3.93;;
17201;SDS011;8717;53.588;10.176;2022-11-23T13:11:15;7.20;;;3.73;;
17201;SDS011;8717;53.588;10.176;2022-11-23T13:13:56;7.33;;;3.50;;
17201;SDS011;8717;53.588;10.176;2022-11-23T13:16:37;13.37;;;4.33;;
17201;SDS011;8717;53.588;10.176;2022-11-23T13:19:23;6.47;;;3.37;;
17201;SDS011;8717;53.588;10.176;2022-11-23T13:22:13;9.20;;;3.43;;
17201;SDS011;8717;53.588;10.176;2022-11-23T13:24:58;6.53;;;3.63;;
17201;SDS011;8717;53.588;10.176;2022-11-23T13:27:39;7.30;;;3.50;;
17201;SDS011;8717;53.588;10.176;2022-11-23T13:30:15;8.47;;;3.70;;
17201;SDS011;8717;53.588;10.176;2022-11-23T13:32:55;5.60;;;3.43;;
17201;SDS011;8717;53.588;10.176;2022-11-23T13:38:24;7.67;;;3.83;;
17201;SDS011;8717;53.588;10.176;2022-11-23T13:44:09;8.10;;;3.40;;
17201;SDS011;8717;53.588;10.176;2022-11-23T13:46:38;5.40;;;3.47;;
17201;SDS011;8717;53.588;10.176;2022-11-23T13:49:17;7.00;;;3.47;;
17201;SDS011;8717;53.588;10.176;2022-11-23T13:52:03;7.60;;;3.53;;
17201;SDS011;8717;53.588;10.176;2022-11-23T13:54:51;7.70;;;3.73;;
17201;SDS011;8717;53.588;10.176;2022-11-23T13:57:20;7.63;;;3.30;;
17201;SDS011;8717;53.588;10.176;2022-11-23T13:59:47;7.70;;;3.77;;
17201;SDS011;8717;53.588;10.176;2022-11-23T14:08:16;5.63;;;3.77;;
17201;SDS011;8717;53.588;10.176;2022-11-23T14:10:44;8.57;;;3.87;;
17201;SDS011;8717;53.588;10.176;2022-11-23T14:13:13;8.43;;;3.43;;
17201;SDS011;8717;53.588;10.176;2022-11-23T14:15:44;7.23;;;3.83;;
17201;SDS011;8717;53.588;10.176;2022-11-23T14:18:35;7.97;;;3.30;;
17201;SDS011;8717;53.588;10.176;2022-11-23T14:21:21;6.43;;;3.47;;
17201;SDS011;8717;53.588;10.176;2022-11-23T14:26:56;8.47;;;4.33;;
17201;SDS011;8717;53.588;10.176;2022-11-23T14:29:40;7.90;;;4.30;;
17201;SDS011;8717;53.588;10.176;2022-11-23T14:32:43;8.70;;;4.20;;
17201;SDS011;8717;53.588;10.176;2022-11-23T14:35:23;9.93;;;4.80;;
17201;SDS011;8717;53.588;10.176;2022-11-23T14:38:04;8.87;;;4.37;;
17201;SDS011;8717;53.588;10.176;2022-11-23T14:40:47;8.83;;;4.90;;
17201;SDS011;8717;53.588;10.176;2022-11-23T14:43:20;9.43;;;4.70;;
17201;SDS011;8717;53.588;10.176;2022-11-23T14:45:47;7.90;;;4.43;;
17201;SDS011;8717;53.588;10.176;2022-11-23T14:48:18;9.33;;;5.53;;
17201;SDS011;8717;53.588;10.176;2022-11-23T14:50:53;9.17;;;4.63;;
17201;SDS011;8717;53.588;10.176;2022-11-23T14:53:23;7.90;;;4.10;;
17201;SDS011;8717;53.588;10.176;2022-11-23T14:55:52;7.73;;;4.67;;
17201;SDS011;8717;53.588;10.176;2022-11-23T14:58:20;7.93;;;5.03;;
17201;SDS011;8717;53.588;10.176;2022-11-23T15:00:50;9.63;;;4.90;;
17201;SDS011;8717;53.588;10.176;2022-11-23T15:03:19;11.13;;;5.30;;
17201;SDS011;8717;53.588;10.176;2022-11-23T15:05:46;8.40;;;4.67;;
17201;SDS011;8717;53.588;10.176;2022-11-23T15:08:17;8.23;;;4.93;;
17201;SDS011;8717;53.588;10.176;2022-11-23T15:10:47;6.87;;;4.63;;
17201;SDS011;8717;53.588;10.176;2022-11-23T15:13:22;7.87;;;4.90;;
17201;SDS011;8717;53.588;10.176;2022-11-23T15:15:51;8.93;;;5.10;;
17201;SDS011;8717;53.588;10.176;2022-11-23T15:18:25;9.00;;;4.80;;
17201;SDS011;8717;53.588;10.176;2022-11-23T15:20:53;8.13;;;5.17;;
17201;SDS011;8717;53.588;10.176;2022-11-23T15:23:23;9.40;;;5.23;;